Time;durP1;ratioP1;P1;durP2;ratioP2;P2;SDS_P1;SDS_P2;PMS_P1;PMS_P2;Temp;Humidity;BMP_temperature;BMP_pressure;BME280_temperature;BME280_humidity;BME280_pressure;Samples;Min_cycle;Max_cycle;Signal;HPM_P1;HPM_P2
2022/08/03 00:01:28;;;;;;;2.65;1.75;;;23.20;94.10;;;;;;5051509;28;20104;-49
2022/08/03 00:03:53;;;;;;;4.18;1.98;;;23.20;94.40;;;;;;5051063;28;20104;-45
2022/08/03 00:06:19;;;;;;;2.97;2.00;;;23.10;94.20;;;;;;5051688;28;20044;-44
2022/08/03 00:08:45;;;;;;;3.55;2.08;;;23.10;93.70;;;;;;5051863;28;20067;-45
2022/08/03 00:11:10;;;;;;;4.72;2.03;;;23.10;93.50;;;;;;5051804;28;20037;-49
2022/08/03 00:13:36;;;;;;;2.45;2.00;;;23.00;95.10;;;;;;5051355;28;20087;-48
2022/08/03 00:16:02;;;;;;;2.88;1.63;;;22.80;95.00;;;;;;5051884;28;20456;-43
2022/08/03 00:18:28;;;;;;;6.05;2.10;;;22.80;95.50;;;;;;5050695;28;20060;-46
2022/08/03 00:20:53;;;;;;;4.70;2.28;;;22.80;96.10;;;;;;5051245;28;20029;-47
2022/08/03 00:23:19;;;;;;;5.93;2.08;;;22.80;95.20;;;;;;5051807;28;20021;-44
2022/08/03 00:25:44;;;;;;;5.35;1.88;;;22.60;96.10;;;;;;5051599;28;20033;-45
2022/08/03 00:28:10;;;;;;;2.30;1.90;;;22.70;97.00;;;;;;5051728;28;20024;-46
2022/08/03 00:30:36;;;;;;;3.95;1.98;;;22.70;95.50;;;;;;5051427;28;20445;-45
2022/08/03 00:33:02;;;;;;;3.10;1.95;;;22.80;94.50;;;;;;5051390;28;20052;-48
2022/08/03 00:35:28;;;;;;;3.42;1.77;;;22.80;95.30;;;;;;5051679;28;20370;-48
2022/08/03 00:37:54;;;;;;;3.13;2.13;;;22.70;94.20;;;;;;5051122;28;20071;-45
2022/08/03 00:40:20;;;;;;;2.40;1.90;;;22.70;95.30;;;;;;5051452;28;20482;-47
2022/08/03 00:42:50;;;;;;;3.83;1.77;;;22.70;95.10;;;;;;5051327;28;20062;-48
2022/08/03 00:45:23;;;;;;;3.10;2.00;;;22.70;94.60;;;;;;5051207;28;20025;-46
2022/08/03 00:47:49;;;;;;;2.55;2.00;;;22.60;95.10;;;;;;5051106;28;20036;-45
2022/08/03 00:50:17;;;;;;;2.78;1.77;;;22.50;94.60;;;;;;5050264;28;20422;-47
2022/08/03 00:52:43;;;;;;;4.43;2.08;;;22.50;94.70;;;;;;5051528;28;20032;-46
2022/08/03 00:55:10;;;;;;;3.15;1.75;;;22.50;95.70;;;;;;5051314;28;20120;-47
2022/08/03 00:57:36;;;;;;;3.47;1.95;;;22.40;95.50;;;;;;5051211;28;20013;-47
2022/08/03 01:00:04;;;;;;;5.13;2.35;;;22.30;96.60;;;;;;5051356;28;20039;-45
2022/08/03 01:02:30;;;;;;;2.92;2.00;;;22.20;96.90;;;;;;5051183;28;20094;-47
2022/08/03 01:04:56;;;;;;;2.60;2.10;;;22.20;96.20;;;;;;5049983;28;20033;-45
2022/08/03 01:07:39;;;;;;;3.60;1.92;;;22.20;97.10;;;;;;5051377;28;20108;-45
2022/08/03 01:10:42;;;;;;;4.73;2.10;;;22.30;97.50;;;;;;5051176;28;20032;-48
2022/08/03 01:13:19;;;;;;;2.33;2.08;;;22.20;95.70;;;;;;5051014;28;20776;-48
2022/08/03 01:16:08;;;;;;;2.97;2.10;;;22.20;96.30;;;;;;5053938;28;20524;-45
2022/08/03 01:19:22;;;;;;;4.10;2.22;;;22.20;96.40;;;;;;5054369;28;20056;-51
2022/08/03 01:22:09;;;;;;;6.15;2.20;;;21.90;97.50;;;;;;5032495;28;20041;-46
2022/08/03 01:25:02;;;;;;;3.70;2.10;;;21.70;99.40;;;;;;5032428;28;20049;-49
2022/08/03 01:27:57;;;;;;;4.43;2.05;;;21.50;99.90;;;;;;5015752;28;20209;-45
2022/08/03 01:30:35;;;;;;;4.78;2.55;;;21.70;99.70;;;;;;5032283;28;20072;-45
2022/08/03 01:33:05;;;;;;;2.33;1.70;;;21.50;99.90;;;;;;5031629;28;20036;-46
2022/08/03 01:35:52;;;;;;;4.18;2.20;;;21.40;99.90;;;;;;5032261;28;20033;-45
2022/08/03 01:38:24;;;;;;;4.55;2.10;;;21.40;99.90;;;;;;5032040;28;20089;-45
2022/08/03 01:40:53;;;;;;;4.50;2.28;;;21.30;99.90;;;;;;5032329;28;20485;-47
2022/08/03 01:43:22;;;;;;;5.57;2.10;;;21.30;99.90;;;;;;5032174;28;20049;-47
2022/08/03 01:45:49;;;;;;;2.38;1.95;;;21.20;99.90;;;;;;5031810;28;20033;-45
2022/08/03 01:48:17;;;;;;;3.35;2.13;;;21.20;99.90;;;;;;5031854;28;20025;-47
2022/08/03 01:50:45;;;;;;;2.33;1.90;;;21.20;99.90;;;;;;5031951;28;20037;-46
2022/08/03 01:53:15;;;;;;;3.60;2.20;;;21.40;99.90;;;;;;5032046;28;20021;-48
2022/08/03 01:55:43;;;;;;;2.15;1.67;;;21.40;99.90;;;;;;5031896;28;20026;-47
2022/08/03 01:58:10;;;;;;;2.75;1.85;;;21.40;99.90;;;;;;5034178;28;20033;-52
2022/08/03 02:00:37;;;;;;;3.22;1.83;;;21.30;99.90;;;;;;5033676;28;20029;-45
2022/08/03 02:03:07;;;;;;;3.05;2.00;;;21.10;99.90;;;;;;5033878;28;20378;-44
2022/08/03 02:05:34;;;;;;;3.92;1.70;;;21.10;99.90;;;;;;5033864;28;20025;-45
2022/08/03 02:08:02;;;;;;;3.45;1.90;;;21.10;99.90;;;;;;5033893;28;20017;-46
2022/08/03 02:10:29;;;;;;;3.33;2.00;;;21.10;99.90;;;;;;5033692;28;20439;-47
2022/08/03 02:13:00;;;;;;;3.22;1.80;;;21.10;99.90;;;;;;5033988;28;20064;-44
2022/08/03 02:15:27;;;;;;;6.40;2.20;;;20.90;99.90;;;;;;5033504;28;20178;-45
2022/08/03 02:17:55;;;;;;;4.30;2.05;;;21.00;99.90;;;;;;5033626;28;20367;-45
2022/08/03 02:20:21;;;;;;;4.82;1.90;;;20.90;99.90;;;;;;5033635;28;20044;-44
2022/08/03 02:22:47;;;;;;;2.97;1.90;;;21.00;99.90;;;;;;5033583;28;20025;-47
2022/08/03 02:25:14;;;;;;;3.25;2.10;;;21.10;99.90;;;;;;5033467;28;20498;-48
2022/08/03 02:27:49;;;;;;;3.78;1.98;;;21.00;99.90;;;;;;5033378;28;20149;-48
2022/08/03 02:30:15;;;;;;;2.08;1.80;;;21.10;99.90;;;;;;5033057;28;20095;-41
2022/08/03 02:32:47;;;;;;;2.38;1.98;;;21.20;99.90;;;;;;5033741;28;20029;-45
2022/08/03 02:35:15;;;;;;;5.38;2.20;;;21.30;99.90;;;;;;5033410;28;20091;-43
2022/08/03 02:37:47;;;;;;;3.72;2.03;;;21.30;99.90;;;;;;5035346;28;20025;-44
2022/08/03 02:40:14;;;;;;;5.40;2.00;;;21.30;99.90;;;;;;5053010;28;20037;-44
2022/08/03 02:42:43;;;;;;;5.05;2.33;;;21.30;99.90;;;;;;5053233;28;20516;-44
2022/08/03 02:45:13;;;;;;;2.33;2.03;;;21.20;99.90;;;;;;5052706;28;20060;-45
2022/08/03 02:47:41;;;;;;;5.07;2.22;;;21.00;99.90;;;;;;5053112;28;20029;-48
2022/08/03 02:50:10;;;;;;;3.63;2.10;;;20.70;99.90;;;;;;5052914;28;20036;-46
2022/08/03 02:52:37;;;;;;;2.20;2.00;;;20.70;99.90;;;;;;5052803;28;20486;-44
2022/08/03 02:55:04;;;;;;;2.45;1.92;;;20.80;99.90;;;;;;5052783;28;20401;-46
2022/08/03 02:57:32;;;;;;;2.92;2.00;;;20.90;99.90;;;;;;5052383;28;20032;-45
2022/08/03 02:59:59;;;;;;;2.08;1.85;;;21.10;99.90;;;;;;5053137;28;20104;-46
2022/08/03 03:02:26;;;;;;;2.70;2.00;;;21.10;99.90;;;;;;5052808;28;20021;-49
2022/08/03 03:04:54;;;;;;;3.30;1.80;;;21.10;99.90;;;;;;5052674;28;20025;-48
2022/08/03 03:07:20;;;;;;;2.30;2.00;;;21.10;99.90;;;;;;5052996;28;20044;-44
2022/08/03 03:09:46;;;;;;;3.83;1.92;;;21.10;99.90;;;;;;5052479;28;20044;-44
2022/08/03 03:12:13;;;;;;;3.00;2.28;;;21.10;99.90;;;;;;5052155;28;20024;-46
2022/08/03 03:14:39;;;;;;;3.92;2.05;;;21.10;99.90;;;;;;5052705;28;20074;-44
2022/08/03 03:17:07;;;;;;;3.63;2.10;;;21.10;99.90;;;;;;5052437;28;20025;-43
2022/08/03 03:19:35;;;;;;;3.67;2.03;;;21.10;99.90;;;;;;5052308;28;20032;-45
2022/08/03 03:22:02;;;;;;;4.63;2.30;;;21.00;99.90;;;;;;5052481;28;20048;-45
2022/08/03 03:24:28;;;;;;;3.50;1.92;;;21.10;99.90;;;;;;5052277;28;20433;-44
2022/08/03 03:26:55;;;;;;;3.60;2.20;;;21.00;99.90;;;;;;5051920;28;20040;-44
2022/08/03 03:29:21;;;;;;;2.20;2.00;;;20.90;99.90;;;;;;5052225;28;20402;-46
2022/08/03 03:31:47;;;;;;;6.35;2.20;;;20.80;99.90;;;;;;5051714;28;20020;-45
2022/08/03 03:34:13;;;;;;;3.83;2.40;;;20.70;99.90;;;;;;5051981;28;20021;-48
2022/08/03 03:36:39;;;;;;;1.95;1.83;;;20.70;99.90;;;;;;5052095;28;20021;-43
2022/08/03 03:39:05;;;;;;;7.20;2.30;;;20.50;99.90;;;;;;5051499;28;20032;-46
2022/08/03 03:41:31;;;;;;;6.65;2.45;;;20.60;99.90;;;;;;5051735;28;20025;-43
2022/08/03 03:43:57;;;;;;;2.85;2.15;;;20.60;99.90;;;;;;5051948;28;20128;-48
2022/08/03 03:46:23;;;;;;;3.92;2.17;;;20.60;99.90;;;;;;5052321;28;20033;-45
2022/08/03 03:48:49;;;;;;;4.45;2.10;;;20.60;99.90;;;;;;5051857;28;20036;-47
2022/08/03 03:51:15;;;;;;;5.07;2.47;;;20.60;99.90;;;;;;5051951;28;20486;-43
2022/08/03 03:53:57;;;;;;;7.47;2.30;;;20.40;99.90;;;;;;5051823;28;20535;-43
2022/08/03 03:56:24;;;;;;;5.10;2.30;;;20.20;99.90;;;;;;5051958;28;20021;-46
2022/08/03 03:58:49;;;;;;;4.95;2.50;;;20.20;99.90;;;;;;5051791;28;20028;-45
2022/08/03 04:01:16;;;;;;;3.97;2.20;;;20.20;99.90;;;;;;5051995;28;20033;-48
2022/08/03 04:03:41;;;;;;;3.42;2.50;;;20.20;99.90;;;;;;5051825;28;20021;-46
2022/08/03 04:11:54;;;;;;;4.28;2.42;;;20.10;99.90;;;;;;5049174;28;20086;-48
2022/08/03 04:14:25;;;;;;;2.60;2.40;;;20.10;99.90;;;;;;5049865;28;20036;-47
2022/08/03 04:16:56;;;;;;;2.78;2.22;;;20.20;99.90;;;;;;5049507;28;20044;-46
2022/08/03 04:19:38;;;;;;;3.60;2.40;;;20.30;99.90;;;;;;5049341;28;20029;-43
2022/08/03 04:22:09;;;;;;;3.10;2.47;;;20.10;99.90;;;;;;5049410;28;20393;-46
2022/08/03 04:24:43;;;;;;;7.20;2.20;;;20.00;99.90;;;;;;5049132;28;20112;-45
2022/08/03 04:27:12;;;;;;;7.40;2.50;;;20.00;99.90;;;;;;5049335;28;20049;-48
2022/08/03 04:29:40;;;;;;;3.35;2.38;;;20.00;99.90;;;;;;5049545;28;20609;-45
2022/08/03 04:32:07;;;;;;;3.60;2.30;;;19.90;99.90;;;;;;5049453;28;20043;-44
2022/08/03 04:34:34;;;;;;;2.45;2.25;;;19.90;99.90;;;;;;5049350;28;20048;-47
2022/08/03 04:37:05;;;;;;;4.97;2.78;;;19.90;99.90;;;;;;5049253;28;20033;-44
2022/08/03 04:39:32;;;;;;;5.55;2.70;;;19.90;99.90;;;;;;5048551;28;20041;-46
2022/08/03 04:42:02;;;;;;;5.18;2.92;;;19.90;99.90;;;;;;5049318;28;20084;-44
2022/08/03 04:44:30;;;;;;;3.63;2.90;;;20.00;99.90;;;;;;5048992;28;20041;-45
2022/08/03 04:46:58;;;;;;;6.38;3.13;;;20.20;99.90;;;;;;5049668;28;20513;-46
2022/08/03 04:49:25;;;;;;;5.07;3.20;;;20.20;99.90;;;;;;5035769;28;20041;-44
2022/08/03 04:51:52;;;;;;;5.40;2.78;;;20.30;99.90;;;;;;5035180;28;20029;-43
2022/08/03 04:54:17;;;;;;;5.15;2.95;;;20.20;99.90;;;;;;5034897;28;20113;-43
2022/08/03 04:56:43;;;;;;;5.10;2.88;;;20.00;99.90;;;;;;5035173;28;20096;-43
2022/08/03 04:59:10;;;;;;;5.78;3.10;;;19.90;99.90;;;;;;5035160;28;20033;-43
2022/08/03 05:01:36;;;;;;;4.47;3.03;;;19.90;99.90;;;;;;5035417;28;20033;-43
2022/08/03 05:04:02;;;;;;;7.30;2.95;;;20.10;99.90;;;;;;5034814;28;20033;-44
2022/08/03 05:06:28;;;;;;;5.03;3.00;;;20.00;99.90;;;;;;5035018;28;20034;-45
2022/08/03 05:08:54;;;;;;;7.15;3.00;;;19.90;99.90;;;;;;5034725;28;20025;-44
2022/08/03 05:11:20;;;;;;;6.40;3.20;;;19.80;99.90;;;;;;5034806;28;20080;-43
2022/08/03 05:13:46;;;;;;;4.93;3.40;;;19.60;99.90;;;;;;5034909;28;20022;-44
2022/08/03 05:16:13;;;;;;;5.82;3.22;;;19.50;99.90;;;;;;5034756;28;20435;-47
2022/08/03 05:18:43;;;;;;;6.18;3.47;;;19.60;99.90;;;;;;5034721;28;20506;-46
2022/08/03 05:21:09;;;;;;;7.32;3.42;;;19.50;99.90;;;;;;5035116;28;20052;-46
2022/08/03 05:23:35;;;;;;;5.28;3.33;;;19.30;99.90;;;;;;5034334;28;20034;-46
2022/08/03 05:26:01;;;;;;;7.28;3.53;;;19.20;99.90;;;;;;5034624;28;20048;-46
2022/08/03 05:28:26;;;;;;;9.15;4.00;;;19.40;99.90;;;;;;5034339;28;20103;-50
2022/08/03 05:30:52;;;;;;;6.60;4.00;;;19.40;99.90;;;;;;5034821;28;20075;-45
2022/08/03 05:33:18;;;;;;;7.80;4.35;;;19.40;99.90;;;;;;5034576;28;20034;-48
2022/08/03 05:35:43;;;;;;;8.05;4.13;;;19.50;99.90;;;;;;5034496;28;20521;-47
2022/08/03 05:38:09;;;;;;;8.20;4.82;;;19.30;99.90;;;;;;5038981;28;20025;-48
2022/08/03 05:40:35;;;;;;;9.27;4.75;;;19.20;99.90;;;;;;5054397;28;20104;-50
2022/08/03 05:43:01;;;;;;;7.50;4.45;;;19.30;99.90;;;;;;5053964;28;20044;-47
2022/08/03 05:45:27;;;;;;;7.78;4.95;;;19.40;99.90;;;;;;5054333;28;20029;-50
2022/08/03 05:47:52;;;;;;;7.13;5.75;;;19.70;99.90;;;;;;5054155;28;20043;-49
2022/08/03 05:50:19;;;;;;;8.55;5.05;;;19.70;99.90;;;;;;5053914;28;20037;-46
2022/08/03 05:52:45;;;;;;;10.00;5.13;;;19.90;99.90;;;;;;5053766;28;20128;-48
2022/08/03 05:55:12;;;;;;;8.13;5.57;;;19.70;99.90;;;;;;5054349;28;20430;-46
2022/08/03 05:57:38;;;;;;;10.25;6.82;;;19.80;99.90;;;;;;5053990;28;20476;-48
2022/08/03 06:00:06;;;;;;;16.13;8.50;;;19.80;99.90;;;;;;5053328;28;20033;-46
2022/08/03 06:02:32;;;;;;;11.32;6.57;;;19.80;99.90;;;;;;5054128;28;20032;-47
2022/08/03 06:04:58;;;;;;;8.90;5.53;;;19.90;99.90;;;;;;5053732;28;20029;-44
2022/08/03 06:07:23;;;;;;;11.10;6.47;;;19.90;99.90;;;;;;5052259;28;20135;-50
2022/08/03 06:09:49;;;;;;;13.50;6.28;;;20.00;99.90;;;;;;5053736;28;20509;-46
2022/08/03 06:12:15;;;;;;;13.77;7.40;;;20.00;99.90;;;;;;5053996;28;20478;-48
2022/08/03 06:14:41;;;;;;;12.38;7.97;;;20.30;99.90;;;;;;5053788;28;20033;-48
2022/08/03 06:17:07;;;;;;;14.90;8.02;;;20.50;99.90;;;;;;5053281;28;20078;-50
2022/08/03 06:19:32;;;;;;;17.65;8.60;;;20.80;99.90;;;;;;5053476;28;20040;-49
2022/08/03 06:21:58;;;;;;;17.38;8.05;;;21.00;99.90;;;;;;5053158;28;20017;-48
2022/08/03 06:24:27;;;;;;;15.73;9.30;;;21.30;99.90;;;;;;5053507;28;20083;-48
2022/08/03 06:26:53;;;;;;;15.30;11.02;;;21.50;99.90;;;;;;5053471;28;20040;-46
2022/08/03 06:29:19;;;;;;;17.30;11.27;;;21.70;99.90;;;;;;5053352;28;20051;-46
2022/08/03 06:31:44;;;;;;;20.10;11.07;;;22.30;99.90;;;;;;5053308;28;20025;-49
2022/08/03 06:34:10;;;;;;;12.63;9.27;;;22.40;99.90;;;;;;5053249;28;20033;-46
2022/08/03 06:36:36;;;;;;;13.30;10.93;;;22.50;99.90;;;;;;5053185;28;20099;-47
2022/08/03 06:39:03;;;;;;;19.55;10.45;;;22.90;99.90;;;;;;5051266;28;20029;-48
2022/08/03 06:41:28;;;;;;;18.10;10.38;;;23.60;99.90;;;;;;5052605;28;20028;-47
2022/08/03 06:43:54;;;;;;;21.08;11.43;;;24.20;99.90;;;;;;5051960;28;20044;-50
2022/08/03 06:46:21;;;;;;;26.67;11.43;;;24.20;99.90;;;;;;5053236;28;20111;-50
2022/08/03 06:48:47;;;;;;;25.65;12.60;;;24.40;99.90;;;;;;5052907;28;20025;-48
2022/08/03 06:51:13;;;;;;;30.90;12.07;;;24.20;99.90;;;;;;5052700;28;20124;-50
2022/08/03 06:53:39;;;;;;;28.63;11.88;;;25.00;99.90;;;;;;5052611;28;20044;-51
2022/08/03 06:56:06;;;;;;;26.75;12.68;;;25.00;99.90;;;;;;5053016;28;20462;-51
2022/08/03 06:58:32;;;;;;;23.23;11.35;;;25.00;99.70;;;;;;5053220;28;20025;-50
2022/08/03 07:00:57;;;;;;;19.17;11.15;;;25.60;99.30;;;;;;5052786;28;20414;-49
2022/08/03 07:03:23;;;;;;;20.88;11.20;;;25.80;99.00;;;;;;5052296;28;20028;-44
2022/08/03 07:05:50;;;;;;;17.65;10.23;;;26.00;98.50;;;;;;5052626;28;20036;-47
2022/08/03 07:08:16;;;;;;;16.45;10.00;;;26.60;97.80;;;;;;5052433;28;20529;-49
2022/08/03 07:10:42;;;;;;;14.55;9.52;;;26.80;97.40;;;;;;5052848;28;20044;-48
2022/08/03 07:13:08;;;;;;;18.70;9.32;;;26.60;97.10;;;;;;5051346;28;20378;-48
2022/08/03 07:15:34;;;;;;;16.02;8.90;;;27.10;96.70;;;;;;5051918;28;20039;-47
2022/08/03 07:18:00;;;;;;;13.07;9.23;;;27.30;96.80;;;;;;5052602;28;20017;-50
2022/08/03 07:20:25;;;;;;;12.73;8.43;;;27.70;96.50;;;;;;5052154;28;20029;-51
2022/08/03 07:22:51;;;;;;;11.30;7.85;;;28.20;95.90;;;;;;5052372;28;20482;-45
2022/08/03 07:25:17;;;;;;;15.13;7.55;;;28.10;95.70;;;;;;5052694;28;20534;-44
2022/08/03 07:27:43;;;;;;;12.15;7.47;;;28.40;96.10;;;;;;5052088;28;20024;-49
2022/08/03 07:30:10;;;;;;;12.27;8.45;;;28.70;94.90;;;;;;5052064;28;20033;-46
2022/08/03 07:32:35;;;;;;;9.10;7.65;;;29.30;94.50;;;;;;5052215;28;20041;-44
2022/08/03 07:35:02;;;;;;;12.80;7.43;;;29.50;94.80;;;;;;5052222;28;20457;-45
2022/08/03 07:37:28;;;;;;;12.52;7.53;;;29.70;94.70;;;;;;5050829;28;20032;-44
2022/08/03 07:39:54;;;;;;;10.13;7.18;;;29.90;94.00;;;;;;5052470;28;20386;-44
2022/08/03 07:42:20;;;;;;;11.30;7.13;;;29.70;94.20;;;;;;5052135;28;20093;-44
2022/08/03 07:44:45;;;;;;;10.40;6.88;;;30.50;93.20;;;;;;5051776;28;20539;-44
2022/08/03 07:47:11;;;;;;;9.73;7.13;;;30.40;93.00;;;;;;5052161;28;20021;-44
2022/08/03 07:49:40;;;;;;;9.07;6.93;;;30.70;92.90;;;;;;5051552;28;20132;-44
2022/08/03 07:54:50;;;;;;;9.77;7.00;;;31.30;91.50;;;;;;5052490;28;20094;-45
2022/08/03 07:57:16;;;;;;;9.57;6.28;;;30.80;92.80;;;;;;5052003;28;20029;-45
2022/08/03 07:59:42;;;;;;;12.18;6.22;;;31.00;91.60;;;;;;5051858;28;20063;-44
2022/08/03 08:02:07;;;;;;;9.13;5.95;;;30.80;91.80;;;;;;5051429;28;20024;-44
2022/08/03 08:04:33;;;;;;;9.05;6.15;;;30.70;91.50;;;;;;5051903;28;20088;-45
2022/08/03 08:06:59;;;;;;;10.43;6.43;;;30.50;92.10;;;;;;5051684;28;20025;-44
2022/08/03 08:09:24;;;;;;;9.43;6.25;;;30.40;92.60;;;;;;5051622;28;20536;-46
2022/08/03 08:11:50;;;;;;;7.32;5.82;;;30.50;92.70;;;;;;5051768;28;20027;-49
2022/08/03 08:14:16;;;;;;;8.60;6.55;;;30.70;92.80;;;;;;5051236;28;20037;-46
2022/08/03 08:16:42;;;;;;;8.05;6.13;;;31.00;92.30;;;;;;5050998;28;20021;-49
2022/08/03 08:19:08;;;;;;;9.18;5.55;;;31.60;91.80;;;;;;5051598;28;20025;-44
2022/08/03 08:21:33;;;;;;;7.93;6.13;;;31.80;91.80;;;;;;5051803;28;20025;-45
2022/08/03 08:23:59;;;;;;;8.25;6.15;;;32.70;90.20;;;;;;5053495;28;20028;-46
2022/08/03 08:26:24;;;;;;;7.40;5.97;;;32.80;89.60;;;;;;5055719;28;20036;-49
2022/08/03 08:28:51;;;;;;;8.02;6.63;;;33.80;87.00;;;;;;5055500;28;20035;-51
2022/08/03 08:31:17;;;;;;;7.35;5.70;;;34.40;86.10;;;;;;5055577;28;20037;-49
2022/08/03 08:33:43;;;;;;;8.07;6.25;;;35.30;84.70;;;;;;5055508;28;20075;-46
2022/08/03 08:36:09;;;;;;;10.02;6.00;;;35.30;84.20;;;;;;5055381;28;20029;-49
2022/08/03 08:38:34;;;;;;;7.03;5.45;;;35.50;80.80;;;;;;5055455;28;20025;-48
2022/08/03 08:41:00;;;;;;;7.22;5.85;;;35.70;80.40;;;;;;5055176;28;20432;-47
2022/08/03 08:43:27;;;;;;;9.18;5.63;;;36.10;81.20;;;;;;5054971;28;20103;-50
2022/08/03 08:45:54;;;;;;;9.85;5.32;;;36.10;80.30;;;;;;5055433;28;20091;-58
2022/08/03 08:48:24;;;;;;;4.93;4.10;;;36.20;81.40;;;;;;5055286;28;20040;-58
2022/08/03 08:50:53;;;;;;;6.68;4.50;;;37.90;78.70;;;;;;5055291;28;20504;-58
2022/08/03 08:53:20;;;;;;;5.88;4.22;;;39.10;76.80;;;;;;5055178;28;20389;-57
2022/08/03 08:55:47;;;;;;;6.53;4.10;;;39.70;74.70;;;;;;5055515;28;20036;-58
2022/08/03 08:58:15;;;;;;;6.10;4.15;;;40.20;72.20;;;;;;5055070;28;20025;-58
2022/08/03 09:00:43;;;;;;;7.57;4.50;;;40.80;70.60;;;;;;5054834;28;20103;-57
2022/08/03 09:03:10;;;;;;;5.85;4.18;;;39.80;72.60;;;;;;5055132;28;20075;-64
2022/08/03 09:05:37;;;;;;;5.82;4.55;;;40.50;71.00;;;;;;5054791;28;20029;-64
2022/08/03 09:08:05;;;;;;;6.38;4.50;;;40.10;73.50;;;;;;5054915;28;20036;-64
2022/08/03 09:10:30;;;;;;;5.95;4.57;;;40.90;70.00;;;;;;5054660;28;20696;-64
2022/08/03 09:12:57;;;;;;;4.93;4.20;;;41.40;70.50;;;;;;5054705;28;20020;-65
2022/08/03 09:15:25;;;;;;;6.28;3.72;;;41.00;71.00;;;;;;5054538;28;20098;-66
2022/08/03 09:17:54;;;;;;;4.72;4.18;;;41.40;70.70;;;;;;5054866;28;20025;-65
2022/08/03 09:20:21;;;;;;;5.78;3.80;;;41.80;71.40;;;;;;5054747;28;20025;-65
2022/08/03 09:23:09;;;;;;;4.63;3.88;;;42.60;69.60;;;;;;5054653;28;20105;-65
2022/08/03 09:25:39;;;;;;;6.60;3.70;;;42.20;68.50;;;;;;5054334;28;20056;-64
2022/08/03 09:28:11;;;;;;;4.22;3.28;;;42.50;68.70;;;;;;5054611;28;20043;-65
2022/08/03 09:30:38;;;;;;;;;;;43.20;66.40;;;;;;5053459;28;20068;-64
2022/08/03 09:33:06;;;;;;;4.78;3.55;;;43.50;65.60;;;;;;5054438;28;19950;-64
2022/08/03 09:35:32;;;;;;;4.97;2.80;;;44.20;64.40;;;;;;5053770;28;20021;-65
2022/08/03 09:38:08;;;;;;;4.72;2.60;;;44.90;64.80;;;;;;5054158;28;20029;-65
2022/08/03 09:40:35;;;;;;;4.70;1.85;;;45.00;63.20;;;;;;5054199;28;20029;-62
2022/08/03 09:43:01;;;;;;;3.78;2.05;;;46.00;60.30;;;;;;5054025;28;20045;-62
2022/08/03 09:45:26;;;;;;;5.10;2.00;;;45.90;59.80;;;;;;5054130;28;20028;-63
2022/08/03 09:47:52;;;;;;;6.32;2.00;;;45.60;59.10;;;;;;5054003;28;20021;-63
2022/08/03 09:50:18;;;;;;;3.15;1.73;;;46.20;59.40;;;;;;5053951;28;20033;-62
2022/08/03 09:52:46;;;;;;;3.47;2.00;;;46.70;57.90;;;;;;5052795;28;20067;-62
2022/08/03 09:55:13;;;;;;;4.63;1.90;;;47.30;59.00;;;;;;5053792;28;20091;-63
2022/08/03 09:57:40;;;;;;;8.48;4.65;;;48.10;58.10;;;;;;5054127;28;20033;-63
2022/08/03 10:00:14;;;;;;;6.55;3.58;;;48.90;57.50;;;;;;5053621;28;20114;-65
2022/08/03 10:02:42;;;;;;;2.47;1.83;;;49.10;57.60;;;;;;5053893;28;20025;-63
2022/08/03 10:05:09;;;;;;;3.92;2.20;;;49.20;54.60;;;;;;5054162;28;20485;-63
2022/08/03 10:07:47;;;;;;;4.57;2.30;;;49.30;54.40;;;;;;5053709;28;20453;-64
2022/08/03 10:10:14;;;;;;;4.00;1.88;;;49.30;54.30;;;;;;5053699;28;20036;-63
2022/08/03 10:12:41;;;;;;;5.25;1.83;;;50.60;54.00;;;;;;5053239;28;20036;-63
2022/08/03 10:15:09;;;;;;;5.75;2.75;;;51.40;52.90;;;;;;5053760;28;20037;-63
2022/08/03 10:17:35;;;;;;;4.70;2.70;;;52.10;54.30;;;;;;5053676;28;20017;-63
2022/08/03 10:20:04;;;;;;;5.55;2.80;;;52.50;53.80;;;;;;5053423;28;20039;-62
2022/08/03 10:22:33;;;;;;;6.63;3.15;;;53.20;53.20;;;;;;5053536;28;20482;-63
2022/08/03 10:25:09;;;;;;;5.43;3.83;;;52.20;55.00;;;;;;5052026;28;20039;-63
2022/08/03 10:27:40;;;;;;;9.45;4.03;;;53.00;55.50;;;;;;5053103;28;20013;-63
2022/08/03 10:30:09;;;;;;;5.30;2.90;;;52.20;54.50;;;;;;5053643;28;20029;-62
2022/08/03 10:32:41;;;;;;;9.15;4.10;;;52.40;55.00;;;;;;5053183;28;20036;-63
2022/08/03 10:35:16;;;;;;;10.13;2.80;;;49.90;56.30;;;;;;5052873;28;20044;-63
2022/08/03 10:37:44;;;;;;;6.40;2.90;;;48.40;58.80;;;;;;5052946;28;20431;-63
2022/08/03 10:40:18;;;;;;;4.28;2.65;;;47.80;57.70;;;;;;5053142;28;20037;-63
2022/08/03 10:42:45;;;;;;;3.55;2.65;;;47.50;57.90;;;;;;5052430;28;20526;-63
2022/08/03 10:45:18;;;;;;;4.28;2.65;;;47.30;59.50;;;;;;5053375;28;20037;-64
2022/08/03 10:47:48;;;;;;;7.85;3.38;;;47.30;58.90;;;;;;5052616;28;20029;-63
2022/08/03 10:50:15;;;;;;;4.35;2.47;;;46.50;59.00;;;;;;5052824;28;20032;-62
2022/08/03 10:52:56;;;;;;;5.03;2.80;;;46.00;59.70;;;;;;5052726;28;20108;-63
2022/08/03 10:58:49;;;;;;;5.55;3.00;;;46.00;58.90;;;;;;5052970;28;20032;-63
2022/08/03 11:01:16;;;;;;;4.13;2.60;;;46.10;59.30;;;;;;5050270;28;20044;-62
2022/08/03 11:03:54;;;;;;;8.55;2.30;;;45.90;59.30;;;;;;5052686;28;20017;-63
2022/08/03 11:06:24;;;;;;;6.00;2.97;;;45.80;58.70;;;;;;5052613;28;20076;-62
2022/08/03 11:09:08;;;;;;;10.82;2.90;;;45.60;59.20;;;;;;5052420;28;20033;-63
2022/08/03 11:11:37;;;;;;;6.47;2.70;;;45.10;59.20;;;;;;5052586;28;20078;-63
2022/08/03 11:14:14;;;;;;;8.27;2.80;;;42.70;59.90;;;;;;5052596;28;20036;-63
2022/08/03 11:16:46;;;;;;;3.75;2.55;;;43.30;60.40;;;;;;5052532;28;20025;-63
2022/08/03 11:19:15;;;;;;;4.80;2.67;;;43.70;60.30;;;;;;5052303;28;20029;-63
2022/08/03 11:21:50;;;;;;;5.10;2.88;;;43.80;60.00;;;;;;5050936;28;20070;-65
2022/08/03 11:24:41;;;;;;;6.13;2.72;;;42.90;61.10;;;;;;5052393;28;20114;-65
2022/08/03 11:27:27;;;;;;;4.90;2.60;;;44.20;61.60;;;;;;5052157;28;20040;-65
2022/08/03 11:30:02;;;;;;;3.88;2.30;;;44.30;59.10;;;;;;5052038;28;20040;-66
2022/08/03 11:32:37;;;;;;;8.25;2.72;;;43.40;60.40;;;;;;5052245;28;20075;-65
2022/08/03 11:35:18;;;;;;;3.80;2.10;;;44.10;60.10;;;;;;5052022;28;20025;-65
2022/08/03 11:38:07;;;;;;;3.72;2.35;;;44.80;60.60;;;;;;5052169;28;20098;-65
2022/08/03 11:40:40;;;;;;;3.90;2.15;;;45.50;59.10;;;;;;5052227;28;20095;-66
2022/08/03 11:43:09;;;;;;;3.08;2.03;;;45.70;58.70;;;;;;5051721;28;20048;-66
2022/08/03 11:45:36;;;;;;;4.68;2.20;;;45.40;58.50;;;;;;5051982;28;20041;-65
2022/08/03 11:48:15;;;;;;;3.42;1.80;;;45.20;58.00;;;;;;5052116;28;20037;-65
2022/08/03 11:50:44;;;;;;;4.72;2.20;;;44.70;57.80;;;;;;5052251;28;20486;-66
2022/08/03 11:53:15;;;;;;;5.20;2.28;;;45.10;57.90;;;;;;5052059;28;20544;-65
2022/08/03 11:55:43;;;;;;;5.15;2.35;;;44.30;58.70;;;;;;5051693;28;20060;-66
2022/08/03 11:58:17;;;;;;;4.72;2.30;;;42.70;58.00;;;;;;5051102;28;20104;-65
2022/08/03 12:00:43;;;;;;;4.15;2.22;;;42.40;58.60;;;;;;5052116;28;20028;-66
2022/08/03 12:03:15;;;;;;;4.82;2.00;;;43.40;59.70;;;;;;5051870;28;20248;-66
2022/08/03 12:05:49;;;;;;;5.07;2.28;;;43.20;58.50;;;;;;5051525;28;20037;-65
2022/08/03 12:08:33;;;;;;;5.13;2.63;;;42.30;57.60;;;;;;5051861;28;20398;-66
2022/08/03 12:11:01;;;;;;;4.88;2.45;;;40.70;59.80;;;;;;5051429;28;20493;-69
2022/08/03 12:13:46;;;;;;;3.25;2.42;;;40.30;60.00;;;;;;5051731;28;20028;-69
2022/08/03 12:16:22;;;;;;;3.90;2.50;;;41.00;59.40;;;;;;5051844;28;20111;-70
2022/08/03 12:19:02;;;;;;;3.55;2.30;;;41.30;59.80;;;;;;5051586;28;20531;-69
2022/08/03 12:21:28;;;;;;;3.20;2.40;;;40.90;59.00;;;;;;5052060;28;20078;-70
2022/08/03 12:23:59;;;;;;;4.18;2.35;;;41.30;60.50;;;;;;5051428;28;20021;-70
2022/08/03 12:26:27;;;;;;;4.50;2.40;;;42.50;58.90;;;;;;5051206;28;20510;-70
2022/08/03 12:28:52;;;;;;;3.30;2.50;;;42.60;59.80;;;;;;5051068;28;20542;-70
2022/08/03 12:31:18;;;;;;;4.90;2.25;;;42.60;60.10;;;;;;5050894;28;20107;-71
2022/08/03 12:34:05;;;;;;;5.28;2.30;;;42.20;59.00;;;;;;5050915;28;20021;-70
2022/08/03 12:36:33;;;;;;;5.75;2.25;;;41.70;57.90;;;;;;5049455;28;20029;-69
2022/08/03 12:39:03;;;;;;;4.72;2.38;;;41.30;58.90;;;;;;5051330;28;20027;-71
2022/08/03 12:41:34;;;;;;;2.75;2.00;;;41.70;59.00;;;;;;5051509;28;20028;-70
2022/08/03 12:44:02;;;;;;;4.72;1.88;;;40.20;58.50;;;;;;5051302;28;20132;-70
2022/08/03 12:46:40;;;;;;;4.10;2.10;;;41.00;59.30;;;;;;5051314;28;20033;-69
2022/08/03 12:49:12;;;;;;;6.90;2.60;;;41.70;60.30;;;;;;5051438;28;20033;-70
2022/08/03 12:51:56;;;;;;;2.50;2.30;;;41.30;56.40;;;;;;5051414;28;20437;-70
2022/08/03 12:54:30;;;;;;;5.05;1.90;;;40.40;58.20;;;;;;5051177;28;20017;-69
2022/08/03 12:57:16;;;;;;;2.03;1.70;;;41.10;58.30;;;;;;5051141;28;20535;-70
2022/08/03 12:59:47;;;;;;;3.20;2.10;;;41.10;57.00;;;;;;5051409;28;20029;-69
2022/08/03 13:02:24;;;;;;;2.40;2.20;;;41.30;57.20;;;;;;5051270;28;20108;-70
2022/08/03 13:04:51;;;;;;;4.18;2.40;;;41.20;58.30;;;;;;5051291;28;20021;-69
2022/08/03 13:07:18;;;;;;;4.72;2.40;;;41.20;58.40;;;;;;5050875;28;20029;-69